RAM641B LFPO-GMMX
Flight info
| Callsign | RAM641B |
|---|---|
| Flight time | N/A |
| Altitude | 37000 |
| Route | AGOPA DCT ARKIP DCT ARMAL DCT ARTAX DCT BEBIX DCT LMG DCT UVELI DCT OSMOB DCT ARVID DCT PPN DCT NOLSA DCT ALEPO DCT VASUM N10 BAN DCT GOTOR DCT KAMPO DCT MONTO DCT MOLIN DCT HIJ DCT SVL DCT CLANA DCT KORNO UN857 ABODA UR722 MABAP |
| Aircraft | B738/M-SDE3FGHIRWY/LB1 |
Departure
| Time | 2026-05-06 17:10 |
|---|---|
| Airport | Paris-Orly Airport (LFPO) |
Arrival
| Time | N/A |
|---|---|
| Airport | Marrakesh Menara Airport (GMMX) |
| Time | Latitude | Longitude | Altitude | Speed | Heading |
|---|---|---|---|---|---|
| 2026-05-06 16:42 | 48.72735 | 2.37049 | 290 ft | 0 kts | 343° |
| 2026-05-06 16:54 | 48.72734 | 2.37049 | 295 ft | 2 kts | 343° |
| 2026-05-06 16:54 | 48.72711 | 2.37059 | 294 ft | 2 kts | 343° |
| 2026-05-06 16:54 | 48.72690 | 2.37073 | 291 ft | 4 kts | 303° |
| 2026-05-06 16:54 | 48.72686 | 2.37108 | 292 ft | 4 kts | 255° |
| 2026-05-06 16:55 | 48.72689 | 2.37125 | 294 ft | 1 kts | 254° |
| 2026-05-06 16:55 | 48.72690 | 2.37126 | 294 ft | 0 kts | 254° |
| 2026-05-06 16:59 | 48.72688 | 2.37120 | 294 ft | 3 kts | 254° |
| 2026-05-06 16:59 | 48.72674 | 2.37041 | 292 ft | 13 kts | 255° |
| 2026-05-06 17:00 | 48.72652 | 2.36925 | 290 ft | 11 kts | 253° |
| 2026-05-06 17:00 | 48.72636 | 2.36844 | 288 ft | 7 kts | 253° |
| 2026-05-06 17:00 | 48.72625 | 2.36795 | 290 ft | 4 kts | 250° |
| 2026-05-06 17:00 | 48.72615 | 2.36753 | 289 ft | 0 kts | 250° |
| 2026-05-06 17:01 | 48.72615 | 2.36754 | 289 ft | 0 kts | 250° |
| 2026-05-06 17:02 | 48.72609 | 2.36733 | 290 ft | 6 kts | 250° |
| 2026-05-06 17:02 | 48.72578 | 2.36635 | 290 ft | 12 kts | 227° |
| 2026-05-06 17:02 | 48.72499 | 2.36611 | 289 ft | 12 kts | 200° |
| 2026-05-06 17:02 | 48.72470 | 2.36489 | 292 ft | 13 kts | 255° |
| 2026-05-06 17:03 | 48.72447 | 2.36362 | 290 ft | 12 kts | 255° |
| 2026-05-06 17:03 | 48.72424 | 2.36238 | 291 ft | 12 kts | 253° |
| 2026-05-06 17:03 | 48.72401 | 2.36118 | 291 ft | 12 kts | 254° |
| 2026-05-06 17:03 | 48.72380 | 2.36001 | 292 ft | 11 kts | 255° |
| 2026-05-06 17:04 | 48.72360 | 2.35887 | 292 ft | 11 kts | 254° |
| 2026-05-06 17:04 | 48.72339 | 2.35776 | 293 ft | 11 kts | 254° |
| 2026-05-06 17:04 | 48.72335 | 2.35668 | 291 ft | 10 kts | 298° |
| 2026-05-06 17:04 | 48.72400 | 2.35623 | 289 ft | 11 kts | 343° |
| 2026-05-06 17:05 | 48.72480 | 2.35588 | 288 ft | 12 kts | 344° |
| 2026-05-06 17:05 | 48.72561 | 2.35553 | 288 ft | 12 kts | 344° |
| 2026-05-06 17:05 | 48.72640 | 2.35519 | 291 ft | 12 kts | 343° |
| 2026-05-06 17:05 | 48.72718 | 2.35487 | 288 ft | 11 kts | 346° |
| 2026-05-06 17:06 | 48.72794 | 2.35459 | 291 ft | 11 kts | 346° |
| 2026-05-06 17:06 | 48.72866 | 2.35426 | 293 ft | 11 kts | 342° |
| 2026-05-06 17:06 | 48.72925 | 2.35353 | 291 ft | 12 kts | 341° |
| 2026-05-06 17:06 | 48.73028 | 2.35410 | 304 ft | 19 kts | 38° |
| 2026-05-06 17:07 | 48.73110 | 2.35567 | 304 ft | 19 kts | 37° |
| 2026-05-06 17:07 | 48.73211 | 2.35682 | 301 ft | 18 kts | 59° |
| 2026-05-06 17:07 | 48.73269 | 2.35849 | 304 ft | 18 kts | 62° |
| 2026-05-06 17:07 | 48.73326 | 2.36010 | 305 ft | 17 kts | 57° |
| 2026-05-06 17:08 | 48.73421 | 2.36101 | 300 ft | 16 kts | 2° |
| 2026-05-06 17:08 | 48.73459 | 2.36094 | 302 ft | 5 kts | 351° |
| 2026-05-06 17:08 | 48.73493 | 2.36076 | 304 ft | 6 kts | 322° |
| 2026-05-06 17:08 | 48.73517 | 2.35990 | 302 ft | 5 kts | 264° |
| 2026-05-06 17:09 | 48.73511 | 2.35969 | 302 ft | 0 kts | 239° |
| 2026-05-06 17:09 | 48.73510 | 2.35966 | 303 ft | 0 kts | 239° |
| 2026-05-06 17:09 | 48.73505 | 2.35953 | 305 ft | 11 kts | 239° |
| 2026-05-06 17:09 | 48.73313 | 2.35406 | 301 ft | 106 kts | 242° |
| 2026-05-06 17:10 | 48.72833 | 2.34062 | 401 ft | 175 kts | 245° |
| 2026-05-06 17:10 | 48.72240 | 2.32315 | 1278 ft | 189 kts | 249° |
| 2026-05-06 17:10 | 48.71771 | 2.30585 | 2682 ft | 184 kts | 242° |
| 2026-05-06 17:10 | 48.70760 | 2.29110 | 3257 ft | 214 kts | 227° |
| 2026-05-06 17:11 | 48.69868 | 2.27161 | 3580 ft | 235 kts | 244° |
| 2026-05-06 17:11 | 48.69032 | 2.25015 | 4258 ft | 245 kts | 242° |
| 2026-05-06 17:11 | 48.68131 | 2.22823 | 5144 ft | 247 kts | 239° |
| 2026-05-06 17:11 | 48.67200 | 2.20591 | 5943 ft | 258 kts | 240° |
| 2026-05-06 17:12 | 48.66217 | 2.18221 | 6636 ft | 270 kts | 238° |
| 2026-05-06 17:12 | 48.64878 | 2.16170 | 7436 ft | 283 kts | 214° |
| 2026-05-06 17:12 | 48.63156 | 2.14608 | 8380 ft | 286 kts | 211° |
| 2026-05-06 17:12 | 48.61428 | 2.13057 | 9340 ft | 289 kts | 213° |
| 2026-05-06 17:13 | 48.59725 | 2.11518 | 10307 ft | 291 kts | 213° |
| 2026-05-06 17:13 | 48.57917 | 2.09865 | 10734 ft | 313 kts | 213° |
| 2026-05-06 17:13 | 48.55974 | 2.08075 | 10949 ft | 341 kts | 212° |
| 2026-05-06 17:13 | 48.53918 | 2.06182 | 11374 ft | 358 kts | 213° |
| 2026-05-06 17:14 | 48.51772 | 2.04209 | 12182 ft | 363 kts | 212° |
| 2026-05-06 17:14 | 48.49612 | 2.02227 | 13086 ft | 365 kts | 211° |
| 2026-05-06 17:14 | 48.47237 | 2.00837 | 13862 ft | 373 kts | 190° |
| 2026-05-06 17:14 | 48.44640 | 2.00622 | 14661 ft | 375 kts | 181° |
| 2026-05-06 17:15 | 48.42015 | 2.00596 | 15358 ft | 380 kts | 181° |
| 2026-05-06 17:15 | 48.39354 | 2.00580 | 16065 ft | 384 kts | 182° |
| 2026-05-06 17:15 | 48.36672 | 2.00545 | 16775 ft | 388 kts | 181° |
| 2026-05-06 17:15 | 48.33962 | 2.00483 | 17484 ft | 391 kts | 183° |
| 2026-05-06 17:16 | 48.31227 | 2.00410 | 18168 ft | 395 kts | 182° |
| 2026-05-06 17:16 | 48.28469 | 2.00342 | 18771 ft | 399 kts | 181° |
| 2026-05-06 17:16 | 48.25681 | 2.00385 | 19380 ft | 402 kts | 180° |
| 2026-05-06 17:16 | 48.22870 | 2.00491 | 19980 ft | 406 kts | 180° |
| 2026-05-06 17:17 | 48.20034 | 2.00606 | 20545 ft | 409 kts | 180° |
| 2026-05-06 17:17 | 48.17177 | 2.00710 | 21168 ft | 412 kts | 180° |
| 2026-05-06 17:17 | 48.14299 | 2.00802 | 21773 ft | 415 kts | 180° |
| 2026-05-06 17:17 | 48.11405 | 2.00886 | 22317 ft | 418 kts | 180° |
| 2026-05-06 17:18 | 48.08479 | 2.00969 | 22858 ft | 422 kts | 180° |
| 2026-05-06 17:18 | 48.05533 | 2.01091 | 23377 ft | 426 kts | 179° |
| 2026-05-06 17:18 | 48.02556 | 2.01263 | 23821 ft | 429 kts | 178° |
| 2026-05-06 17:18 | 47.99562 | 2.01453 | 24251 ft | 432 kts | 178° |
| 2026-05-06 17:19 | 47.96546 | 2.01645 | 24693 ft | 435 kts | 178° |
| 2026-05-06 17:19 | 47.93518 | 2.01833 | 25097 ft | 438 kts | 178° |
| 2026-05-06 17:19 | 47.90452 | 2.02019 | 25464 ft | 442 kts | 178° |
| 2026-05-06 17:19 | 47.87359 | 2.02202 | 25813 ft | 447 kts | 178° |
| 2026-05-06 17:20 | 47.84248 | 2.02384 | 26279 ft | 448 kts | 178° |
| 2026-05-06 17:20 | 47.81122 | 2.02566 | 26618 ft | 451 kts | 178° |
| 2026-05-06 17:20 | 47.77976 | 2.02748 | 26947 ft | 455 kts | 178° |
| 2026-05-06 17:20 | 47.74803 | 2.02933 | 27350 ft | 456 kts | 178° |
| 2026-05-06 17:21 | 47.71670 | 2.03115 | 27790 ft | 457 kts | 178° |
| 2026-05-06 17:21 | 47.68487 | 2.03299 | 28132 ft | 460 kts | 178° |
| 2026-05-06 17:21 | 47.65271 | 2.03486 | 28431 ft | 463 kts | 178° |
| 2026-05-06 17:21 | 47.62038 | 2.03673 | 28748 ft | 466 kts | 178° |
| 2026-05-06 17:22 | 47.58793 | 2.03862 | 29076 ft | 469 kts | 178° |
| 2026-05-06 17:22 | 47.55529 | 2.04053 | 29466 ft | 469 kts | 178° |
| 2026-05-06 17:22 | 47.52274 | 2.04243 | 30002 ft | 467 kts | 178° |
| 2026-05-06 17:22 | 47.49030 | 2.04433 | 30458 ft | 465 kts | 178° |
| 2026-05-06 17:23 | 47.45802 | 2.04621 | 30847 ft | 464 kts | 178° |
| 2026-05-06 17:23 | 47.42581 | 2.04808 | 31196 ft | 464 kts | 178° |
| 2026-05-06 17:23 | 47.39354 | 2.04995 | 31567 ft | 463 kts | 178° |
| 2026-05-06 17:23 | 47.36141 | 2.05181 | 31969 ft | 462 kts | 179° |
| 2026-05-06 17:24 | 47.32934 | 2.05114 | 32304 ft | 461 kts | 187° |
| 2026-05-06 17:24 | 47.29763 | 2.04401 | 32647 ft | 460 kts | 191° |
| 2026-05-06 17:24 | 47.26613 | 2.03563 | 33033 ft | 459 kts | 191° |
| 2026-05-06 17:24 | 47.23482 | 2.02711 | 33440 ft | 457 kts | 191° |
| 2026-05-06 17:25 | 47.20352 | 2.01869 | 33795 ft | 457 kts | 191° |
| 2026-05-06 17:25 | 47.17219 | 2.01043 | 34071 ft | 457 kts | 191° |
| 2026-05-06 17:25 | 47.14085 | 2.00232 | 34358 ft | 457 kts | 191° |
| 2026-05-06 17:25 | 47.10956 | 1.99435 | 34657 ft | 456 kts | 191° |
| 2026-05-06 17:26 | 47.07829 | 1.98645 | 34934 ft | 456 kts | 191° |
| 2026-05-06 17:26 | 47.04706 | 1.97860 | 35209 ft | 455 kts | 191° |
| 2026-05-06 17:26 | 47.01588 | 1.97078 | 35488 ft | 455 kts | 191° |
| 2026-05-06 17:26 | 46.98470 | 1.96297 | 35760 ft | 454 kts | 191° |
| 2026-05-06 17:27 | 46.95351 | 1.95515 | 36024 ft | 454 kts | 191° |
| 2026-05-06 17:27 | 46.92242 | 1.94736 | 36281 ft | 454 kts | 191° |
| 2026-05-06 17:27 | 46.89132 | 1.93958 | 36546 ft | 453 kts | 191° |
| 2026-05-06 17:27 | 46.86026 | 1.93182 | 36803 ft | 453 kts | 191° |
| 2026-05-06 17:28 | 46.82922 | 1.92406 | 36942 ft | 455 kts | 191° |
| 2026-05-06 17:28 | 46.76655 | 1.90843 | 36936 ft | 457 kts | 191° |
| 2026-05-06 17:29 | 46.70405 | 1.89290 | 36923 ft | 452 kts | 191° |
| 2026-05-06 17:29 | 46.64230 | 1.87759 | 36935 ft | 449 kts | 191° |
| 2026-05-06 17:30 | 46.58079 | 1.86235 | 36935 ft | 448 kts | 191° |